sensor_id;sensor_type;location;lat;lon;timestamp;pressure;altitude;pressure_sealevel;temperature;humidity
49973;BME280;35865;49.798;10.968;2022-07-29T00:01:20;98057.09;;;21.82;48.00
49973;BME280;35865;49.798;10.968;2022-07-29T00:03:46;98058.00;;;21.77;48.19
49973;BME280;35865;49.798;10.968;2022-07-29T00:06:13;98053.25;;;21.74;48.55
49973;BME280;35865;49.798;10.968;2022-07-29T00:08:39;98051.06;;;21.67;48.34
49973;BME280;35865;49.798;10.968;2022-07-29T00:11:06;98051.34;;;21.74;48.09
49973;BME280;35865;49.798;10.968;2022-07-29T00:13:32;98045.00;;;21.70;48.01
49973;BME280;35865;49.798;10.968;2022-07-29T00:16:00;98041.53;;;21.70;48.21
49973;BME280;35865;49.798;10.968;2022-07-29T00:18:26;98040.25;;;21.67;48.55
49973;BME280;35865;49.798;10.968;2022-07-29T00:20:53;98032.50;;;21.66;48.09
49973;BME280;35865;49.798;10.968;2022-07-29T00:23:20;98029.47;;;21.67;48.22
49973;BME280;35865;49.798;10.968;2022-07-29T00:25:46;98031.22;;;21.63;48.54
49973;BME280;35865;49.798;10.968;2022-07-29T00:28:12;98023.59;;;21.65;47.93
49973;BME280;35865;49.798;10.968;2022-07-29T00:30:39;98027.72;;;21.71;47.78
49973;BME280;35865;49.798;10.968;2022-07-29T00:33:09;98021.81;;;21.69;47.89
49973;BME280;35865;49.798;10.968;2022-07-29T00:35:35;98011.50;;;21.71;48.19
49973;BME280;35865;49.798;10.968;2022-07-29T00:38:11;98012.16;;;21.68;47.84
49973;BME280;35865;49.798;10.968;2022-07-29T00:40:37;98002.94;;;21.69;47.86
49973;BME280;35865;49.798;10.968;2022-07-29T00:43:04;98004.25;;;21.63;48.23
49973;BME280;35865;49.798;10.968;2022-07-29T00:45:30;97998.66;;;21.68;47.80
49973;BME280;35865;49.798;10.968;2022-07-29T00:47:56;97994.38;;;21.67;48.15
49973;BME280;35865;49.798;10.968;2022-07-29T00:50:25;97997.84;;;21.68;48.05
49973;BME280;35865;49.798;10.968;2022-07-29T00:52:52;97993.44;;;21.63;48.22
49973;BME280;35865;49.798;10.968;2022-07-29T00:55:19;97991.19;;;21.65;47.66
49973;BME280;35865;49.798;10.968;2022-07-29T00:57:45;97984.25;;;21.64;48.07
49973;BME280;35865;49.798;10.968;2022-07-29T01:00:15;97989.66;;;21.55;48.23
49973;BME280;35865;49.798;10.968;2022-07-29T01:02:43;97986.00;;;21.60;48.25
49973;BME280;35865;49.798;10.968;2022-07-29T01:05:10;97979.34;;;21.48;48.29
49973;BME280;35865;49.798;10.968;2022-07-29T01:07:39;97979.34;;;21.57;47.90
49973;BME280;35865;49.798;10.968;2022-07-29T01:10:07;97982.50;;;21.59;47.64
49973;BME280;35865;49.798;10.968;2022-07-29T01:12:36;97980.28;;;21.61;47.95
49973;BME280;35865;49.798;10.968;2022-07-29T01:15:06;97980.13;;;21.58;48.13
49973;BME280;35865;49.798;10.968;2022-07-29T01:17:38;97980.28;;;21.61;47.55
49973;BME280;35865;49.798;10.968;2022-07-29T01:20:12;97981.06;;;21.62;47.83
49973;BME280;35865;49.798;10.968;2022-07-29T01:23:23;97984.09;;;21.60;47.96
49973;BME280;35865;49.798;10.968;2022-07-29T01:29:07;97986.28;;;21.67;48.00
49973;BME280;35865;49.798;10.968;2022-07-29T01:31:38;97976.88;;;21.73;47.76
49973;BME280;35865;49.798;10.968;2022-07-29T01:34:11;97976.88;;;21.73;47.57
49973;BME280;35865;49.798;10.968;2022-07-29T01:36:43;97976.75;;;21.70;47.74
49973;BME280;35865;49.798;10.968;2022-07-29T01:39:11;97975.94;;;21.69;47.97
49973;BME280;35865;49.798;10.968;2022-07-29T01:41:40;97968.97;;;21.68;48.02
49973;BME280;35865;49.798;10.968;2022-07-29T01:44:16;97966.13;;;21.64;47.71
49973;BME280;35865;49.798;10.968;2022-07-29T01:46:49;97973.13;;;21.57;47.82
49973;BME280;35865;49.798;10.968;2022-07-29T01:49:21;97982.81;;;21.58;48.25
49973;BME280;35865;49.798;10.968;2022-07-29T01:51:51;97976.97;;;21.56;47.97
49973;BME280;35865;49.798;10.968;2022-07-29T01:54:25;97982.38;;;21.56;48.05
49973;BME280;35865;49.798;10.968;2022-07-29T01:56:55;97983.00;;;21.53;47.87
49973;BME280;35865;49.798;10.968;2022-07-29T01:59:25;97984.91;;;21.52;48.49
49973;BME280;35865;49.798;10.968;2022-07-29T02:01:53;97991.91;;;21.53;48.45
49973;BME280;35865;49.798;10.968;2022-07-29T02:04:21;97991.63;;;21.46;48.80
49973;BME280;35865;49.798;10.968;2022-07-29T02:06:51;97981.00;;;21.41;48.84
49973;BME280;35865;49.798;10.968;2022-07-29T02:09:20;97981.31;;;21.30;48.69
49973;BME280;35865;49.798;10.968;2022-07-29T02:11:51;97978.66;;;21.22;49.19
49973;BME280;35865;49.798;10.968;2022-07-29T02:14:20;97976.78;;;21.13;49.21
49973;BME280;35865;49.798;10.968;2022-07-29T02:16:52;97979.34;;;21.01;49.58
49973;BME280;35865;49.798;10.968;2022-07-29T02:19:21;97982.50;;;20.86;49.87
49973;BME280;35865;49.798;10.968;2022-07-29T02:21:48;97979.97;;;20.72;50.42
49973;BME280;35865;49.798;10.968;2022-07-29T02:24:18;97989.16;;;20.62;51.48
49973;BME280;35865;49.798;10.968;2022-07-29T02:26:45;97983.16;;;20.48;51.14
49973;BME280;35865;49.798;10.968;2022-07-29T02:29:14;97987.25;;;20.36;52.60
49973;BME280;35865;49.798;10.968;2022-07-29T02:31:41;98000.41;;;20.29;52.68
49973;BME280;35865;49.798;10.968;2022-07-29T02:34:11;98000.38;;;20.20;53.18
49973;BME280;35865;49.798;10.968;2022-07-29T02:36:39;98005.28;;;20.09;52.64
49973;BME280;35865;49.798;10.968;2022-07-29T02:39:07;98007.16;;;20.00;53.12
49973;BME280;35865;49.798;10.968;2022-07-29T02:41:41;98003.34;;;19.92;53.08
49973;BME280;35865;49.798;10.968;2022-07-29T02:44:10;98001.06;;;19.86;53.65
49973;BME280;35865;49.798;10.968;2022-07-29T02:46:43;98005.97;;;19.84;54.02
49973;BME280;35865;49.798;10.968;2022-07-29T02:49:15;98006.09;;;19.78;54.23
49973;BME280;35865;49.798;10.968;2022-07-29T02:51:45;97996.09;;;19.70;54.23
49973;BME280;35865;49.798;10.968;2022-07-29T02:54:20;98007.13;;;19.60;55.11
49973;BME280;35865;49.798;10.968;2022-07-29T02:56:48;98010.59;;;19.52;55.62
49973;BME280;35865;49.798;10.968;2022-07-29T02:59:21;98011.59;;;19.33;56.54
49973;BME280;35865;49.798;10.968;2022-07-29T03:01:49;98013.06;;;19.17;56.67
49973;BME280;35865;49.798;10.968;2022-07-29T03:04:19;98016.63;;;19.03;57.32
49973;BME280;35865;49.798;10.968;2022-07-29T03:06:48;98013.69;;;18.91;57.21
49973;BME280;35865;49.798;10.968;2022-07-29T03:09:15;98021.84;;;18.86;57.28
49973;BME280;35865;49.798;10.968;2022-07-29T03:11:43;98014.38;;;18.83;57.92
49973;BME280;35865;49.798;10.968;2022-07-29T03:14:11;98020.63;;;18.69;58.54
49973;BME280;35865;49.798;10.968;2022-07-29T03:16:38;98022.06;;;18.53;59.85
49973;BME280;35865;49.798;10.968;2022-07-29T03:19:05;98017.50;;;18.39;60.69
49973;BME280;35865;49.798;10.968;2022-07-29T03:21:33;98006.81;;;18.25;60.87
49973;BME280;35865;49.798;10.968;2022-07-29T03:24:00;98014.44;;;18.18;60.96
49973;BME280;35865;49.798;10.968;2022-07-29T03:26:27;98007.31;;;18.14;61.12
49973;BME280;35865;49.798;10.968;2022-07-29T03:28:54;98000.66;;;17.97;61.75
49973;BME280;35865;49.798;10.968;2022-07-29T03:31:20;98001.66;;;18.01;61.54
49973;BME280;35865;49.798;10.968;2022-07-29T03:33:47;98000.66;;;17.97;62.27
49973;BME280;35865;49.798;10.968;2022-07-29T03:36:13;97997.59;;;17.90;62.36
49973;BME280;35865;49.798;10.968;2022-07-29T03:38:42;98005.00;;;17.79;62.56
49973;BME280;35865;49.798;10.968;2022-07-29T03:41:11;98009.84;;;17.77;62.71
49973;BME280;35865;49.798;10.968;2022-07-29T03:43:40;97997.84;;;17.74;62.63
49973;BME280;35865;49.798;10.968;2022-07-29T03:46:09;98001.94;;;17.72;62.63
49973;BME280;35865;49.798;10.968;2022-07-29T03:48:37;98007.00;;;17.73;62.69
49973;BME280;35865;49.798;10.968;2022-07-29T03:51:05;97992.28;;;17.71;62.85
49973;BME280;35865;49.798;10.968;2022-07-29T03:53:32;97999.25;;;17.72;62.40
49973;BME280;35865;49.798;10.968;2022-07-29T03:56:02;97999.03;;;17.68;62.41
49973;BME280;35865;49.798;10.968;2022-07-29T03:58:30;98010.25;;;17.70;62.92
49973;BME280;35865;49.798;10.968;2022-07-29T04:00:58;98016.13;;;17.72;63.02
49973;BME280;35865;49.798;10.968;2022-07-29T04:03:24;98011.47;;;17.64;63.73
49973;BME280;35865;49.798;10.968;2022-07-29T04:05:59;98012.06;;;17.61;64.03
49973;BME280;35865;49.798;10.968;2022-07-29T04:08:25;98007.56;;;17.56;63.92
49973;BME280;35865;49.798;10.968;2022-07-29T04:10:52;98004.59;;;17.58;63.73
49973;BME280;35865;49.798;10.968;2022-07-29T04:13:20;98007.47;;;17.62;64.06
49973;BME280;35865;49.798;10.968;2022-07-29T04:15:46;98012.53;;;17.63;64.19
49973;BME280;35865;49.798;10.968;2022-07-29T04:18:13;98001.31;;;17.61;64.65
49973;BME280;35865;49.798;10.968;2022-07-29T04:20:39;98004.31;;;17.59;64.95
49973;BME280;35865;49.798;10.968;2022-07-29T04:23:06;98008.06;;;17.58;65.34
49973;BME280;35865;49.798;10.968;2022-07-29T04:25:32;98014.44;;;17.63;65.34
49973;BME280;35865;49.798;10.968;2022-07-29T04:27:59;98011.94;;;17.66;65.47
49973;BME280;35865;49.798;10.968;2022-07-29T04:30:30;98013.56;;;17.81;64.52
49973;BME280;35865;49.798;10.968;2022-07-29T04:32:57;98009.06;;;17.76;64.66
49973;BME280;35865;49.798;10.968;2022-07-29T04:35:24;98015.38;;;17.86;63.82
49973;BME280;35865;49.798;10.968;2022-07-29T04:37:50;98010.38;;;18.07;63.31
49973;BME280;35865;49.798;10.968;2022-07-29T04:40:17;98016.22;;;18.37;62.20
49973;BME280;35865;49.798;10.968;2022-07-29T04:42:43;98000.59;;;18.75;60.40
49973;BME280;35865;49.798;10.968;2022-07-29T04:45:10;98002.00;;;19.18;59.31
49973;BME280;35865;49.798;10.968;2022-07-29T04:47:38;98005.66;;;19.54;58.03
49973;BME280;35865;49.798;10.968;2022-07-29T04:50:05;98001.19;;;19.81;57.93
49973;BME280;35865;49.798;10.968;2022-07-29T04:52:32;98001.13;;;20.03;57.38
49973;BME280;35865;49.798;10.968;2022-07-29T04:54:59;97998.66;;;20.33;56.30
49973;BME280;35865;49.798;10.968;2022-07-29T04:57:26;97997.75;;;20.64;55.49
49973;BME280;35865;49.798;10.968;2022-07-29T04:59:52;97997.13;;;21.02;54.69
49973;BME280;35865;49.798;10.968;2022-07-29T05:02:19;97999.72;;;21.37;54.72
49973;BME280;35865;49.798;10.968;2022-07-29T05:04:48;98003.41;;;21.71;54.19
49973;BME280;35865;49.798;10.968;2022-07-29T05:07:14;98005.69;;;21.99;53.30
49973;BME280;35865;49.798;10.968;2022-07-29T05:09:42;98002.31;;;22.32;51.94
49973;BME280;35865;49.798;10.968;2022-07-29T05:12:08;98001.41;;;22.49;51.21
49973;BME280;35865;49.798;10.968;2022-07-29T05:14:35;98002.25;;;23.04;49.78
49973;BME280;35865;49.798;10.968;2022-07-29T05:17:01;98001.97;;;23.30;47.39
49973;BME280;35865;49.798;10.968;2022-07-29T05:19:27;97994.25;;;23.54;46.60
49973;BME280;35865;49.798;10.968;2022-07-29T05:21:55;97990.97;;;23.48;45.92
49973;BME280;35865;49.798;10.968;2022-07-29T05:24:22;97988.22;;;23.36;46.45
49973;BME280;35865;49.798;10.968;2022-07-29T05:26:48;97980.91;;;23.48;45.91
49973;BME280;35865;49.798;10.968;2022-07-29T05:29:14;97985.66;;;23.39;46.08
49973;BME280;35865;49.798;10.968;2022-07-29T05:31:41;97983.56;;;23.24;46.46
49973;BME280;35865;49.798;10.968;2022-07-29T05:34:07;97991.63;;;23.45;46.71
49973;BME280;35865;49.798;10.968;2022-07-29T05:36:34;97993.25;;;23.71;45.88
49973;BME280;35865;49.798;10.968;2022-07-29T05:39:01;97982.84;;;23.48;46.15
49973;BME280;35865;49.798;10.968;2022-07-29T05:41:31;97992.03;;;23.80;45.95
49973;BME280;35865;49.798;10.968;2022-07-29T05:43:57;97991.22;;;23.92;45.56
49973;BME280;35865;49.798;10.968;2022-07-29T05:46:24;97997.41;;;24.30;44.79
49973;BME280;35865;49.798;10.968;2022-07-29T05:48:51;97996.72;;;24.33;44.29
49973;BME280;35865;49.798;10.968;2022-07-29T05:54:30;98010.06;;;24.26;45.59
49973;BME280;35865;49.798;10.968;2022-07-29T05:56:57;98003.28;;;24.20;45.03
49973;BME280;35865;49.798;10.968;2022-07-29T05:59:23;98006.47;;;24.34;45.53
49973;BME280;35865;49.798;10.968;2022-07-29T06:01:50;97999.44;;;24.21;44.40
49973;BME280;35865;49.798;10.968;2022-07-29T06:04:16;98006.22;;;24.14;44.94
49973;BME280;35865;49.798;10.968;2022-07-29T06:06:43;98010.09;;;24.13;45.17
49973;BME280;35865;49.798;10.968;2022-07-29T06:09:09;98012.31;;;24.24;46.70
49973;BME280;35865;49.798;10.968;2022-07-29T06:11:37;98010.25;;;24.58;46.59
49973;BME280;35865;49.798;10.968;2022-07-29T06:14:03;98014.66;;;24.91;47.02
49973;BME280;35865;49.798;10.968;2022-07-29T06:16:30;98012.84;;;25.39;45.99
49973;BME280;35865;49.798;10.968;2022-07-29T06:18:56;98023.78;;;26.39;43.65
49973;BME280;35865;49.798;10.968;2022-07-29T06:21:23;98021.47;;;26.96;42.38
49973;BME280;35865;49.798;10.968;2022-07-29T06:23:49;98018.66;;;26.92;42.57
49973;BME280;35865;49.798;10.968;2022-07-29T06:26:15;98018.31;;;27.13;42.38
49973;BME280;35865;49.798;10.968;2022-07-29T06:28:43;98015.47;;;26.67;42.75
49973;BME280;35865;49.798;10.968;2022-07-29T06:31:10;98015.34;;;27.22;41.74
49973;BME280;35865;49.798;10.968;2022-07-29T06:33:36;98013.53;;;27.49;40.67
49973;BME280;35865;49.798;10.968;2022-07-29T06:36:03;98013.34;;;27.62;40.13
49973;BME280;35865;49.798;10.968;2022-07-29T06:38:30;98020.13;;;28.21;38.72
49973;BME280;35865;49.798;10.968;2022-07-29T06:40:56;98022.75;;;28.41;38.58
49973;BME280;35865;49.798;10.968;2022-07-29T06:43:26;98019.56;;;28.66;38.06
49973;BME280;35865;49.798;10.968;2022-07-29T06:45:55;98016.34;;;29.28;36.49
49973;BME280;35865;49.798;10.968;2022-07-29T06:48:21;98018.47;;;29.42;36.27
49973;BME280;35865;49.798;10.968;2022-07-29T06:50:48;98025.81;;;30.28;35.73
49973;BME280;35865;49.798;10.968;2022-07-29T06:53:14;98019.44;;;30.83;34.46
49973;BME280;35865;49.798;10.968;2022-07-29T06:55:41;98021.13;;;31.16;33.97
49973;BME280;35865;49.798;10.968;2022-07-29T06:58:07;98011.81;;;30.44;34.26
49973;BME280;35865;49.798;10.968;2022-07-29T07:00:34;98021.97;;;30.43;35.38
49973;BME280;35865;49.798;10.968;2022-07-29T07:03:02;98014.59;;;30.51;34.91
49973;BME280;35865;49.798;10.968;2022-07-29T07:05:29;98020.44;;;30.49;34.66
49973;BME280;35865;49.798;10.968;2022-07-29T07:07:55;98023.41;;;31.03;34.40
49973;BME280;35865;49.798;10.968;2022-07-29T07:10:22;98026.41;;;30.66;34.48
49973;BME280;35865;49.798;10.968;2022-07-29T07:12:48;98025.09;;;31.40;33.38
49973;BME280;35865;49.798;10.968;2022-07-29T07:15:14;98027.84;;;31.73;33.15
49973;BME280;35865;49.798;10.968;2022-07-29T07:17:41;98019.22;;;31.53;32.97
49973;BME280;35865;49.798;10.968;2022-07-29T07:20:09;98020.44;;;31.88;33.22
49973;BME280;35865;49.798;10.968;2022-07-29T07:22:36;98016.88;;;31.44;33.76
49973;BME280;35865;49.798;10.968;2022-07-29T07:25:03;98027.44;;;32.21;32.41
49973;BME280;35865;49.798;10.968;2022-07-29T07:27:29;98027.03;;;32.41;32.33
49973;BME280;35865;49.798;10.968;2022-07-29T07:29:55;98010.94;;;31.20;32.85
49973;BME280;35865;49.798;10.968;2022-07-29T07:32:22;98018.75;;;31.18;33.84
49973;BME280;35865;49.798;10.968;2022-07-29T07:34:48;98019.53;;;31.15;34.12
49973;BME280;35865;49.798;10.968;2022-07-29T07:37:16;98007.56;;;30.53;34.61
49973;BME280;35865;49.798;10.968;2022-07-29T07:39:44;98007.94;;;30.48;34.90
49973;BME280;35865;49.798;10.968;2022-07-29T07:42:10;98001.09;;;29.65;35.81
49973;BME280;35865;49.798;10.968;2022-07-29T07:44:38;98009.44;;;29.79;36.47
49973;BME280;35865;49.798;10.968;2022-07-29T07:47:04;98009.09;;;29.88;36.67
49973;BME280;35865;49.798;10.968;2022-07-29T07:49:31;97995.69;;;29.31;36.97
49973;BME280;35865;49.798;10.968;2022-07-29T07:51:57;97996.09;;;28.92;38.07
49973;BME280;35865;49.798;10.968;2022-07-29T07:54:25;97995.88;;;29.08;37.36
49973;BME280;35865;49.798;10.968;2022-07-29T07:56:51;97993.50;;;29.06;37.88
49973;BME280;35865;49.798;10.968;2022-07-29T07:59:18;98012.63;;;30.51;36.13
49973;BME280;35865;49.798;10.968;2022-07-29T08:01:44;98006.88;;;30.67;35.20
49973;BME280;35865;49.798;10.968;2022-07-29T08:04:11;98007.84;;;31.36;34.57
49973;BME280;35865;49.798;10.968;2022-07-29T08:06:37;98012.53;;;32.37;33.09
49973;BME280;35865;49.798;10.968;2022-07-29T08:09:04;98004.41;;;33.11;31.78
49973;BME280;35865;49.798;10.968;2022-07-29T08:11:32;97992.75;;;33.45;31.56
49973;BME280;35865;49.798;10.968;2022-07-29T08:13:59;97997.34;;;33.06;31.82
49973;BME280;35865;49.798;10.968;2022-07-29T08:16:26;98003.88;;;32.49;33.14
49973;BME280;35865;49.798;10.968;2022-07-29T08:18:53;98000.75;;;32.40;32.89
49973;BME280;35865;49.798;10.968;2022-07-29T08:21:22;98008.81;;;32.83;32.40
49973;BME280;35865;49.798;10.968;2022-07-29T08:23:50;98000.16;;;32.92;32.74
49973;BME280;35865;49.798;10.968;2022-07-29T08:26:18;97996.75;;;33.37;31.56
49973;BME280;35865;49.798;10.968;2022-07-29T08:28:46;97992.06;;;32.59;32.94
49973;BME280;35865;49.798;10.968;2022-07-29T08:31:16;98004.69;;;32.24;33.86
49973;BME280;35865;49.798;10.968;2022-07-29T08:33:43;97999.88;;;32.68;32.84
49973;BME280;35865;49.798;10.968;2022-07-29T08:36:09;97998.31;;;32.64;33.29
49973;BME280;35865;49.798;10.968;2022-07-29T08:38:37;98011.69;;;33.88;32.03
49973;BME280;35865;49.798;10.968;2022-07-29T08:41:04;98002.06;;;34.84;30.73
49973;BME280;35865;49.798;10.968;2022-07-29T08:43:31;97986.44;;;33.52;31.43
49973;BME280;35865;49.798;10.968;2022-07-29T08:46:01;97984.69;;;34.18;31.15
49973;BME280;35865;49.798;10.968;2022-07-29T08:48:28;97989.53;;;32.98;33.26
49973;BME280;35865;49.798;10.968;2022-07-29T08:50:56;97993.63;;;33.38;32.37
49973;BME280;35865;49.798;10.968;2022-07-29T08:53:24;97998.19;;;34.01;32.11
49973;BME280;35865;49.798;10.968;2022-07-29T08:55:52;97998.16;;;34.81;31.09
49973;BME280;35865;49.798;10.968;2022-07-29T08:58:20;97992.56;;;34.19;32.00
49973;BME280;35865;49.798;10.968;2022-07-29T09:00:50;97984.47;;;32.89;33.38
49973;BME280;35865;49.798;10.968;2022-07-29T09:03:20;97990.97;;;33.24;33.55
49973;BME280;35865;49.798;10.968;2022-07-29T09:05:49;97991.69;;;33.84;33.35
49973;BME280;35865;49.798;10.968;2022-07-29T09:08:17;97994.25;;;33.57;33.29
49973;BME280;35865;49.798;10.968;2022-07-29T09:10:44;97992.50;;;33.81;32.54
49973;BME280;35865;49.798;10.968;2022-07-29T09:13:10;97998.38;;;33.31;33.68
49973;BME280;35865;49.798;10.968;2022-07-29T09:15:37;97997.34;;;33.06;34.11
49973;BME280;35865;49.798;10.968;2022-07-29T09:18:04;97991.09;;;33.02;34.46
49973;BME280;35865;49.798;10.968;2022-07-29T09:20:31;97996.56;;;33.06;34.90
49973;BME280;35865;49.798;10.968;2022-07-29T09:23:13;97998.47;;;33.16;34.59
49973;BME280;35865;49.798;10.968;2022-07-29T09:25:40;97996.94;;;33.08;34.99
49973;BME280;35865;49.798;10.968;2022-07-29T09:28:08;97997.16;;;32.65;35.09
49973;BME280;35865;49.798;10.968;2022-07-29T09:30:35;97995.66;;;32.46;36.12
49973;BME280;35865;49.798;10.968;2022-07-29T09:33:02;97999.25;;;32.14;36.48
49973;BME280;35865;49.798;10.968;2022-07-29T09:35:31;97996.63;;;32.91;35.68
49973;BME280;35865;49.798;10.968;2022-07-29T09:38:09;97998.88;;;33.15;35.08
49973;BME280;35865;49.798;10.968;2022-07-29T09:40:36;97999.28;;;33.73;34.11
49973;BME280;35865;49.798;10.968;2022-07-29T09:43:09;97987.19;;;34.01;33.96
49973;BME280;35865;49.798;10.968;2022-07-29T09:45:36;97981.66;;;34.08;33.41
49973;BME280;35865;49.798;10.968;2022-07-29T09:48:14;97983.75;;;33.41;34.16
49973;BME280;35865;49.798;10.968;2022-07-29T09:50:43;97983.34;;;33.95;34.06
49973;BME280;35865;49.798;10.968;2022-07-29T09:53:10;97988.56;;;34.28;33.87
49973;BME280;35865;49.798;10.968;2022-07-29T09:55:47;97986.00;;;34.79;33.23
49973;BME280;35865;49.798;10.968;2022-07-29T09:58:15;97983.75;;;34.97;33.22
49973;BME280;35865;49.798;10.968;2022-07-29T10:00:45;97971.22;;;34.61;33.48
49973;BME280;35865;49.798;10.968;2022-07-29T10:03:12;97981.41;;;35.50;31.93
49973;BME280;35865;49.798;10.968;2022-07-29T10:05:38;97976.19;;;35.32;32.21
49973;BME280;35865;49.798;10.968;2022-07-29T10:08:09;97975.44;;;35.32;32.07
49973;BME280;35865;49.798;10.968;2022-07-29T10:10:38;97971.56;;;34.67;33.41
49973;BME280;35865;49.798;10.968;2022-07-29T10:13:07;97974.59;;;34.76;33.87
49973;BME280;35865;49.798;10.968;2022-07-29T10:15:36;97977.16;;;35.69;32.65
49973;BME280;35865;49.798;10.968;2022-07-29T10:18:06;97963.63;;;34.69;33.65
49973;BME280;35865;49.798;10.968;2022-07-29T10:20:33;97968.16;;;35.14;33.59
49973;BME280;35865;49.798;10.968;2022-07-29T10:23:00;97965.38;;;34.25;34.11
49973;BME280;35865;49.798;10.968;2022-07-29T10:25:28;97960.44;;;35.56;33.10
49973;BME280;35865;49.798;10.968;2022-07-29T10:27:55;97970.13;;;36.12;31.64
49973;BME280;35865;49.798;10.968;2022-07-29T10:30:23;97957.63;;;34.47;33.63
49973;BME280;35865;49.798;10.968;2022-07-29T10:33:10;97962.84;;;34.00;34.58
49973;BME280;35865;49.798;10.968;2022-07-29T10:36:02;97962.44;;;33.59;35.38
49973;BME280;35865;49.798;10.968;2022-07-29T10:38:41;97965.38;;;33.83;35.39
49973;BME280;35865;49.798;10.968;2022-07-29T10:41:23;97975.03;;;34.40;34.01
49973;BME280;35865;49.798;10.968;2022-07-29T10:44:00;97969.38;;;34.51;35.01
49973;BME280;35865;49.798;10.968;2022-07-29T10:46:28;97964.88;;;34.34;35.18
49973;BME280;35865;49.798;10.968;2022-07-29T10:49:08;97953.50;;;33.48;35.86
49973;BME280;35865;49.798;10.968;2022-07-29T10:51:52;97963.75;;;32.73;37.55
49973;BME280;35865;49.798;10.968;2022-07-29T10:54:36;97961.13;;;32.48;37.52
49973;BME280;35865;49.798;10.968;2022-07-29T10:57:12;97969.28;;;32.63;37.96
49973;BME280;35865;49.798;10.968;2022-07-29T10:59:39;97982.53;;;33.49;43.79
49973;BME280;35865;49.798;10.968;2022-07-29T11:05:06;97960.97;;;35.48;35.84
49973;BME280;35865;49.798;10.968;2022-07-29T11:07:34;97977.53;;;36.15;33.90
49973;BME280;35865;49.798;10.968;2022-07-29T11:10:25;97975.91;;;36.78;32.30
49973;BME280;35865;49.798;10.968;2022-07-29T11:12:52;97972.00;;;36.39;32.05
49973;BME280;35865;49.798;10.968;2022-07-29T11:15:21;97957.78;;;35.49;33.75
49973;BME280;35865;49.798;10.968;2022-07-29T11:18:07;97965.91;;;37.04;31.91
49973;BME280;35865;49.798;10.968;2022-07-29T11:20:35;97964.78;;;38.13;30.14
49973;BME280;35865;49.798;10.968;2022-07-29T11:23:18;97955.25;;;38.44;29.27
49973;BME280;35865;49.798;10.968;2022-07-29T11:25:45;97950.47;;;39.00;28.30
49973;BME280;35865;49.798;10.968;2022-07-29T11:28:16;97945.06;;;37.66;28.38
49973;BME280;35865;49.798;10.968;2022-07-29T11:30:49;97936.44;;;36.77;29.20
49973;BME280;35865;49.798;10.968;2022-07-29T11:33:29;97929.88;;;35.47;30.98
49973;BME280;35865;49.798;10.968;2022-07-29T11:36:09;97918.72;;;34.76;32.21
49973;BME280;35865;49.798;10.968;2022-07-29T11:38:36;97921.44;;;32.60;35.19
49973;BME280;35865;49.798;10.968;2022-07-29T11:41:21;97932.16;;;32.25;36.32
49973;BME280;35865;49.798;10.968;2022-07-29T11:43:51;97933.09;;;31.68;37.30
49973;BME280;35865;49.798;10.968;2022-07-29T11:46:46;97934.22;;;31.82;37.61
49973;BME280;35865;49.798;10.968;2022-07-29T11:49:19;97938.78;;;32.35;36.56
49973;BME280;35865;49.798;10.968;2022-07-29T11:51:50;97934.66;;;32.87;36.06
49973;BME280;35865;49.798;10.968;2022-07-29T11:54:23;97939.75;;;34.32;34.68
49973;BME280;35865;49.798;10.968;2022-07-29T11:56:50;97931.50;;;34.28;34.34
49973;BME280;35865;49.798;10.968;2022-07-29T11:59:19;97923.97;;;33.98;34.47
49973;BME280;35865;49.798;10.968;2022-07-29T12:01:52;97918.31;;;33.74;34.85
49973;BME280;35865;49.798;10.968;2022-07-29T12:04:19;97915.25;;;33.19;35.72
49973;BME280;35865;49.798;10.968;2022-07-29T12:06:49;97916.72;;;32.68;36.67
49973;BME280;35865;49.798;10.968;2022-07-29T12:09:15;97910.25;;;32.15;37.71
49973;BME280;35865;49.798;10.968;2022-07-29T12:11:42;97918.13;;;32.09;37.72
49973;BME280;35865;49.798;10.968;2022-07-29T12:14:09;97911.50;;;31.67;38.52
49973;BME280;35865;49.798;10.968;2022-07-29T12:16:37;97922.09;;;31.97;37.90
49973;BME280;35865;49.798;10.968;2022-07-29T12:19:04;97918.59;;;32.82;37.19
49973;BME280;35865;49.798;10.968;2022-07-29T12:21:43;97918.84;;;33.58;36.01
49973;BME280;35865;49.798;10.968;2022-07-29T12:24:10;97912.53;;;34.03;35.17
49973;BME280;35865;49.798;10.968;2022-07-29T12:26:48;97904.84;;;34.52;34.86
49973;BME280;35865;49.798;10.968;2022-07-29T12:29:15;97896.03;;;35.67;32.85
49973;BME280;35865;49.798;10.968;2022-07-29T12:31:43;97889.06;;;36.02;32.02
49973;BME280;35865;49.798;10.968;2022-07-29T12:34:12;97887.16;;;35.79;32.50
49973;BME280;35865;49.798;10.968;2022-07-29T12:36:40;97888.16;;;36.09;32.42
49973;BME280;35865;49.798;10.968;2022-07-29T12:39:08;97876.94;;;35.32;33.13
49973;BME280;35865;49.798;10.968;2022-07-29T12:41:35;97881.97;;;34.86;33.96
49973;BME280;35865;49.798;10.968;2022-07-29T12:44:02;97882.78;;;35.34;33.34
49973;BME280;35865;49.798;10.968;2022-07-29T12:46:29;97872.28;;;35.29;33.75
49973;BME280;35865;49.798;10.968;2022-07-29T12:48:57;97879.66;;;35.56;32.97
49973;BME280;35865;49.798;10.968;2022-07-29T12:51:30;97868.19;;;35.37;33.16
49973;BME280;35865;49.798;10.968;2022-07-29T12:54:05;97871.47;;;34.19;34.63
49973;BME280;35865;49.798;10.968;2022-07-29T12:56:32;97872.84;;;34.35;35.08
49973;BME280;35865;49.798;10.968;2022-07-29T12:58:58;97869.06;;;34.21;34.71
49973;BME280;35865;49.798;10.968;2022-07-29T13:01:25;97878.16;;;35.04;34.02
49973;BME280;35865;49.798;10.968;2022-07-29T13:03:54;97876.38;;;35.17;33.61
49973;BME280;35865;49.798;10.968;2022-07-29T13:06:31;97877.41;;;35.71;33.26
49973;BME280;35865;49.798;10.968;2022-07-29T13:09:09;97873.38;;;35.55;33.03